• Join FlightAware (Why Join?)
  • Login
  • US Flag 
07:25PM EDT


 

Airport Tracker/Info


-or-


 

Live Flight TrackerFlight Track Log ✈ UAL4457 ✈ 20-May-2013 ✈ KLEX - KIAH

Flight Track Log - Related Links

Times and Time Zones

All times are in EDT time to prevent confusion due to time zone crossing. See the UAL4457 flight status page for this flight to view local times or setup timezone preferences in your user account.

Time Position Orientation Groundspeed Altitude Reporting Facility
EDT Latitude Longitude Course Direction KTS MPH feet Rate Location/Type
05:45PM 37.9331 -84.7642 243° Southwest 221 254 6,500  Level Indianapolis Center
05:46PM 37.9025 -84.8428 244° Southwest 245 282 8,400 1,740 Climbing Indianapolis Center
05:47PM 37.8686 -84.9250 242° Southwest 258 297 10,100 1,260 Climbing Indianapolis Center
05:48PM 37.8344 -85.0131 244° Southwest 274 315 11,100 960 Climbing Indianapolis Center
05:49PM 37.7368 -85.3381 241° Southwest  Level FlightAware Approximate
05:49PM 37.7956 -85.1131 244° Southwest 312 359 12,100  Level Indianapolis Center
05:50PM 37.7472 -85.2367 244° Southwest 333 383 13,200 1,020 Climbing Indianapolis Center
05:51PM 37.7036 -85.3456 243° Southwest 343 395 14,200 900 Climbing Indianapolis Center
05:52PM 37.6592 -85.4589 244° Southwest 355 409 15,100 900 Climbing Indianapolis Center
05:53PM 37.6108 -85.5739 242° Southwest 366 421 16,100 960 Climbing Indianapolis Center
05:54PM 37.5650 -85.6903 244° Southwest 367 422 17,100 900 Climbing Indianapolis Center
05:55PM 37.5178 -85.8072 243° Southwest 372 428 18,000 900 Climbing Indianapolis Center
05:56PM 37.4675 -85.9328 243° Southwest 378 435 19,000 960 Climbing Indianapolis Center
05:57PM 37.4189 -86.0508 243° Southwest 378 435 20,000 960 Climbing Indianapolis Center
05:58PM 37.3703 -86.1703 243° Southwest 381 438 21,000 900 Climbing Indianapolis Center
05:59PM 37.3208 -86.2908 243° Southwest 384 442 21,900 900 Climbing Indianapolis Center
06:00PM 37.2714 -86.4119 243° Southwest 387 445 22,900 900 Climbing Indianapolis Center
06:02PM 37.2208 -86.5336 242° Southwest 390 449 23,800 960 Climbing Indianapolis Center
06:03PM 37.1622 -86.6764 243° Southwest 392 451 24,900 1,020 Climbing Indianapolis Center
06:04PM 37.1108 -86.7978 242° Southwest 393 452 25,900 900 Climbing Indianapolis Center
06:05PM 37.0600 -86.9194 242° Southwest 393 452 26,800 900 Climbing Indianapolis Center
06:06PM 37.0086 -87.0500 244° Southwest 393 452 27,800 900 Climbing Memphis Center
06:07PM 36.9556 -87.1689 241° Southwest 399 459 28,700 900 Climbing Memphis Center
06:08PM 36.9083 -87.2850 243° Southwest 394 453 29,700 1,080 Climbing Memphis Center
06:09PM 36.8592 -87.4061 243° Southwest 388 447 30,900 1,140 Climbing Memphis Center
06:10PM 36.8097 -87.5194 241° Southwest 388 447 32,000 1,140 Climbing Memphis Center
06:11PM 36.7603 -87.6375 242° Southwest 388 447 33,200 1,140 Climbing Memphis Center
06:12PM 36.7086 -87.7533 241° Southwest 388 447 34,300 1,020 Climbing Memphis Center
06:13PM 36.6631 -87.8658 243° Southwest 380 437 35,300 840 Climbing Memphis Center
06:14PM 36.6131 -87.9786 241° Southwest 380 437 36,000 300 Climbing Memphis Center
06:15PM 36.5611 -88.0939 241° Southwest 380 437 36,000  Level Memphis Center
06:16PM 36.5172 -88.2036 244° Southwest 385 443 36,000  Level Memphis Center
06:17PM 36.4631 -88.3264 241° Southwest 396 456 36,000  Level Memphis Center
06:18PM 36.4067 -88.4514 241° Southwest 414 476 36,000  Level Memphis Center
06:19PM 36.3500 -88.5817 242° Southwest 425 489 36,000  Level Memphis Center
06:20PM 36.2936 -88.7064 241° Southwest 425 489 36,000  Level Memphis Center
06:21PM 36.2389 -88.8283 241° Southwest 420 483 36,000  Level Memphis Center
06:22PM 36.1819 -88.9506 240° Southwest 420 483 36,000  Level Memphis Center
06:23PM 36.1269 -89.0747 241° Southwest 420 483 36,000  Level Memphis Center
06:24PM 36.0719 -89.1964 241° Southwest 420 483 36,000  Level Memphis Center
06:25PM 36.0106 -89.3306 241° Southwest 420 483 36,000  Level Memphis Center
06:26PM 35.9550 -89.4519 241° Southwest 420 483 36,000  Level Memphis Center
06:27PM 35.9039 -89.5703 242° Southwest 413 475 36,000  Level Memphis Center
06:28PM 35.8481 -89.6911 240° Southwest 408 470 36,000  Level Memphis Center
06:29PM 35.7944 -89.8094 241° Southwest 403 464 36,000  Level Memphis Center
06:30PM 35.7408 -89.9272 241° Southwest 398 458 36,000  Level Memphis Center
06:31PM 35.6972 -90.0197 240° Southwest 398 458 36,000  Level Memphis Center
06:32PM 35.6392 -90.1603 243° Southwest 392 451 36,000  Level Memphis Center
06:33PM 35.5831 -90.2831 241° Southwest 397 457 36,000  Level Memphis Center
06:34PM 35.5289 -90.4031 241° Southwest 397 457 36,000  Level Memphis Center
06:35PM 35.4703 -90.5228 239° Southwest 407 468 36,000  Level Memphis Center
06:36PM 35.4139 -90.6500 241° Southwest 414 476 36,000  Level Memphis Center
06:37PM 35.3572 -90.7694 240° Southwest 419 482 36,000  Level Memphis Center
06:38PM 35.2983 -90.8861 238° Southwest 409 471 36,000  Level Memphis Center
06:39PM 35.2456 -91.0053 242° Southwest 400 460 36,000  Level Memphis Center
06:40PM 35.1764 -91.0836 223° Southwest 392 451 36,000  Level Memphis Center
06:41PM 35.0778 -91.1589 212° Southwest 397 457 36,000  Level Memphis Center
06:42PM 34.9814 -91.2339 213° Southwest 419 482 36,000  Level Memphis Center
06:43PM 34.8786 -91.3114 212° Southwest 432 497 36,000  Level Memphis Center
06:44PM 34.7778 -91.3861 211° Southwest 431 496 36,000  Level Memphis Center
06:45PM 34.6811 -91.4583 212° Southwest 419 482 36,000  Level Memphis Center
06:46PM 34.5908 -91.5303 213° Southwest 406 467 36,000  Level Memphis Center
06:47PM 34.4900 -91.6069 212° Southwest 415 478 36,000  Level Memphis Center
06:48PM 34.3806 -91.6883 212° Southwest 415 478 36,000  Level Memphis Center
06:49PM 34.2903 -91.7550 211° Southwest 425 489 36,000  Level Memphis Center
06:50PM 34.1892 -91.8286 211° Southwest 425 489 36,000  Level Memphis Center
06:51PM 34.0903 -91.9047 213° Southwest 430 495 36,000  Level Memphis Center
06:52PM 33.9911 -91.9856 214° Southwest 435 501 36,000  Level Memphis Center
06:53PM 33.8858 -92.0586 210° Southwest 435 501 36,000  Level Memphis Center
06:54PM 33.7625 -92.1494 211° Southwest 428 493 36,000  Level Fort Worth Center
06:55PM 33.6614 -92.2256 212° Southwest 434 499 36,000  Level Fort Worth Center
06:56PM 33.5581 -92.3014 211° Southwest 434 499 36,000  Level Fort Worth Center
06:57PM 33.4586 -92.3744 212° Southwest 434 499 36,000  Level Fort Worth Center
06:58PM 33.3481 -92.4278 202° Southwest 434 499 36,000  Level Fort Worth Center
06:59PM 33.2281 -92.4494 189° South 434 499 36,000  Level Fort Worth Center
07:00PM 33.1100 -92.4711 189° South 439 505 36,000  Level Fort Worth Center
07:01PM 32.9792 -92.4931 188° South 439 505 36,000  Level Fort Worth Center
07:02PM 32.8589 -92.5119 188° South 439 505 36,000  Level Fort Worth Center
07:04PM 32.5961 -92.5656 190° South 432 497 36,000  Level Houston Center
07:05PM 32.4525 -92.5900 188° South 434 499 36,000  Level Houston Center
07:06PM 32.3331 -92.6114 189° South 436 502 36,000  Level Houston Center
07:07PM 32.2125 -92.6328 189° South 438 504 36,000  Level Houston Center
07:08PM 32.0911 -92.6564 189° South 442 509 36,000  Level Houston Center
07:09PM 31.9703 -92.6831 191° South 443 510 36,000  Level Houston Center
07:10PM 31.8622 -92.7847 219° Southwest 416 479 36,000  Level Houston Center
07:11PM 31.7719 -92.8744 220° Southwest 422 486 36,000  Level Houston Center
07:13PM 31.6819 -92.9606 219° Southwest 420 483 36,000  Level Houston Center
07:14PM 31.5917 -93.0469 219° Southwest 419 482 36,000  Level Houston Center
07:15PM 31.5047 -93.1308 219° Southwest 413 475 36,000  Level Houston Center
07:16PM 31.4189 -93.2117 219° Southwest 400 460 36,000 -240 Level Houston Center
07:17PM 31.3125 -93.3144 220° Southwest 405 466 35,600 -1,260 Descending Houston Center
07:18PM 31.2258 -93.3967 219° Southwest 409 471 33,500 -1,980 Descending Houston Center
07:19PM 31.1361 -93.4803 219° Southwest 412 474 31,600 -1,920 Descending Houston Center
07:20PM 31.0447 -93.5675 219° Southwest 424 488 29,600 -1,980 Descending Houston Center
07:21PM 30.9522 -93.6550 219° Southwest 430 495 27,600 -2,160 Descending Houston Center
07:22PM 30.8422 -93.7583 219° Southwest 425 489 25,200 -1,980 Descending Houston Center
07:23PM 30.7569 -93.8403 220° Southwest 406 467 23,600 -1,620 Descending Houston Center
07:24PM 30.6728 -93.9200 219° Southwest 395 455 21,900 -1,620 Descending Houston Center
07:25PM 30.5911 -93.9964 219° Southwest 383 441 20,300 -1,680 Descending Houston Center
07:26PM 30.5192 -94.0625 218° Southwest 371 427 18,900 -1,560 Descending Houston Center
07:26PM 30.5106 -94.0700 217° Southwest 374 430 18,700 -1,860 Descending Houston Center
07:26PM 30.4614 -94.1164 219° Southwest 366 421 17,600 -1,920 Descending Houston Center
07:27PM 30.4319 -94.1442 219° Southwest 368 423 16,800 -2,100 Descending Houston Center
07:27PM 30.3789 -94.1928 218° Southwest 368 423 15,500 -2,460 Descending Houston Center
07:28PM 30.3386 -94.2317 220° Southwest 359 413 14,300 -1,980 Descending Houston Center
07:28PM 30.3058 -94.2631 220° Southwest 351 404 13,500 -1,980 Descending Houston Center
07:29PM 30.2644 -94.3000 218° Southwest 346 398 12,300 -1,500 Descending Houston Center
07:29PM 30.2308 -94.3311 219° Southwest 322 371 12,000 -1,080 Descending Houston Center
07:30PM 30.2011 -94.3667 226° Southwest 318 366 11,200 -1,680 Descending Houston Center
07:30PM 30.1883 -94.4117 252° West 290 334 10,300 -1,800 Descending Houston Center
07:31PM 30.1819 -94.4556 260° West 289 333 9,400 -1,620 Descending Houston Center
07:31PM 30.1722 -94.5058 257° West 285 328 8,700 -1,260 Descending Houston Center
07:32PM 30.1656 -94.5575 262° West 285 328 8,100 -1,020 Descending Houston Center
07:33PM 30.1575 -94.5922 255° West 280 322 7,700 -1,080 Descending Houston Center
07:33PM 30.1506 -94.6447 261° West 280 322 7,000 -1,140 Descending Houston Center
07:34PM 30.1431 -94.6811 257° West 274 315 6,600 -900 Descending Houston Center
07:34PM 30.1364 -94.7297 261° West 274 315 6,100 -600 Descending Houston Center
07:35PM 30.1281 -94.7653 255° West 261 300 6,000 -120 Descending Houston Center
07:35PM 30.1200 -94.8139 259° West 266 306 6,000  Level Houston Center
07:36PM 30.1131 -94.8494 257° West 266 306 6,000  Level Houston Center
07:36PM 30.1067 -94.8956 261° West 266 306 6,000  Level Houston Center
07:37PM 30.1044 -94.9375 267° West 271 312 6,000  Level Houston Center
07:37PM 30.1056 -94.9811 272° West 267 307 6,000  Level Houston Center
07:38PM 30.1044 -95.0267 268° West 273 314 6,000  Level Houston Center
07:38PM 30.1058 -95.0861 272° West 274 315 6,000  Level Houston Center
07:39PM 30.1064 -95.1136 271° West 271 312 6,000  Level Houston Center
07:39PM 30.1064 -95.1717 270° West 270 311 6,000  Level Houston Center
07:40PM 30.1061 -95.2006 269° West 273 314 6,000  Level Houston Center
07:40PM 30.1069 -95.2594 271° West 273 314 6,000  Level Houston Center
07:41PM 30.1064 -95.2947 269° West 274 315 6,000  Level Houston Center
07:41PM 30.1069 -95.3464 271° West 273 314 6,000  Level Houston Center
07:42PM 30.1058 -95.3817 268° West 273 314 6,000 -120 Level Houston Center
07:42PM 30.1056 -95.4331 270° West 274 315 5,900 -540 Descending Houston Center
07:43PM 30.0989 -95.4669 257° West 256 295 5,500 -1,020 Descending Houston Center
07:43PM 30.0919 -95.5144 260° West 263 303 4,900 -1,020 Descending Houston Center
07:44PM 30.0872 -95.5481 261° West 240 276 4,500 -900 Descending Houston Center
07:44PM 30.0789 -95.5997 259° West 236 272 4,000 -660 Descending Houston Center
07:46PM 30.0308 -95.6142 195° South 202 232 3,400 -540 Descending Houston Center
07:47PM 29.9989 -95.5722 131° Southeast 187 215 3,000 -300 Descending Houston Center
07:48PM 29.9931 -95.5200 97° East 172 198 2,800 -240 Descending Houston Center